createdAt,value
2023-02-25T00:02:40.940Z,96685.46
2023-02-25T00:07:45.425Z,96674.60
2023-02-25T00:12:53.270Z,96668.19
2023-02-25T00:17:56.289Z,96654.06
2023-02-25T00:23:18.825Z,96647.95
2023-02-25T00:28:36.135Z,96639.77
2023-02-25T00:33:44.026Z,96627.39
2023-02-25T00:38:48.524Z,96621.17
2023-02-25T00:43:56.639Z,96621.63
2023-02-25T00:49:00.613Z,96622.11
2023-02-25T00:54:03.423Z,96626.27
2023-02-25T00:59:08.302Z,96623.02
2023-02-25T01:04:11.189Z,96610.95
2023-02-25T01:09:16.432Z,96610.40
2023-02-25T01:14:21.750Z,96596.45
2023-02-25T01:19:27.405Z,96592.64
2023-02-25T01:24:37.367Z,96586.89
2023-02-25T01:29:42.029Z,96582.20
2023-02-25T01:34:44.396Z,96578.10
2023-02-25T01:39:46.665Z,96586.29
2023-02-25T01:45:38.520Z,96590.07
2023-02-25T01:50:59.427Z,96609.79
2023-02-25T01:56:03.580Z,96597.59
2023-02-25T02:01:14.774Z,96585.52
2023-02-25T02:06:22.745Z,96582.23
2023-02-25T02:11:25.342Z,96582.27
2023-02-25T02:16:47.181Z,96576.17
2023-02-25T02:22:01.038Z,96587.38
2023-02-25T02:27:19.266Z,96577.71
2023-02-25T02:32:48.538Z,96572.85
2023-02-25T02:38:14.639Z,96563.56
2023-02-25T02:43:45.896Z,96570.10
2023-02-25T02:49:12.545Z,96579.87
2023-02-25T02:54:18.187Z,96589.06
2023-02-25T02:59:28.909Z,96607.56
2023-02-25T03:04:37.919Z,96614.11
2023-02-25T03:09:54.310Z,96627.20
2023-02-25T03:15:14.768Z,96633.70
2023-02-25T03:20:30.750Z,96636.15
2023-02-25T03:25:38.341Z,96635.50
2023-02-25T03:30:48.560Z,96645.15
2023-02-25T03:35:59.432Z,96654.33
2023-02-25T03:41:14.084Z,96656.02
2023-02-25T03:46:20.214Z,96667.89
2023-02-25T03:51:31.391Z,96661.66
2023-02-25T03:56:44.366Z,96656.13
2023-02-25T04:01:55.596Z,96653.85
2023-02-25T04:07:10.098Z,96650.67
2023-02-25T04:12:13.135Z,96646.88
2023-02-25T04:17:20.133Z,96639.66
2023-02-25T04:22:23.479Z,96635.48
2023-02-25T04:27:27.346Z,96634.73
2023-02-25T04:32:38.747Z,96634.27
2023-02-25T04:37:43.210Z,96631.30
2023-02-25T04:42:45.991Z,96624.64
2023-02-25T04:47:51.025Z,96631.92
2023-02-25T04:52:54.329Z,96641.21
2023-02-25T04:57:56.920Z,96643.14
2023-02-25T05:02:59.103Z,96646.09
2023-02-25T05:08:28.743Z,96645.00
2023-02-25T05:13:31.882Z,96643.77
2023-02-25T05:18:51.267Z,96642.20
2023-02-25T05:23:54.391Z,96653.34
2023-02-25T05:28:58.841Z,96660.98
2023-02-25T05:34:02.436Z,96657.52
2023-02-25T05:39:08.416Z,96655.20
2023-02-25T05:44:11.454Z,96656.03
2023-02-25T05:49:14.227Z,96661.73
2023-02-25T05:54:19.032Z,96662.29
2023-02-25T05:59:21.256Z,96662.44
2023-02-25T06:04:23.657Z,96668.15
2023-02-25T06:09:27.862Z,96667.70
2023-02-25T06:14:32.991Z,96672.73
2023-02-25T06:19:35.861Z,96672.66
2023-02-25T06:24:41.787Z,96681.10
2023-02-25T06:29:49.985Z,96682.35
2023-02-25T06:35:07.969Z,96686.04
2023-02-25T06:40:14.506Z,96684.05
2023-02-25T06:45:17.104Z,96688.61
2023-02-25T06:50:23.152Z,96710.76
2023-02-25T06:55:27.113Z,96716.28
2023-02-25T07:00:31.733Z,96708.22
2023-02-25T07:05:38.111Z,96712.48
2023-02-25T07:10:41.939Z,96725.28
2023-02-25T07:15:45.630Z,96713.42
2023-02-25T07:20:49.095Z,96686.68
2023-02-25T07:25:51.266Z,96688.50
2023-02-25T07:30:54.345Z,96696.91
2023-02-25T07:35:57.800Z,96699.86
2023-02-25T07:41:11.497Z,96706.34
2023-02-25T07:46:14.423Z,96708.92
2023-02-25T07:51:20.163Z,96706.95
2023-02-25T07:56:24.261Z,96703.25
2023-02-25T08:01:34.036Z,96703.59
2023-02-25T08:06:38.292Z,96695.30
2023-02-25T08:11:41.668Z,96694.58
2023-02-25T08:16:45.045Z,96697.67
2023-02-25T08:21:47.956Z,96706.83
2023-02-25T08:26:50.888Z,96700.27
2023-02-25T08:31:57.991Z,96703.42
2023-02-25T08:37:04.649Z,96703.92
2023-02-25T08:42:07.726Z,96697.66
2023-02-25T08:47:10.120Z,96691.74
2023-02-25T08:52:14.067Z,96699.95
2023-02-25T08:57:17.919Z,96697.94
2023-02-25T09:02:21.837Z,96699.54
2023-02-25T09:07:24.585Z,96706.63
2023-02-25T09:12:32.397Z,96695.68
2023-02-25T09:17:36.429Z,96694.12
2023-02-25T09:22:42.767Z,96697.30
2023-02-25T09:27:45.755Z,96691.94
2023-02-25T09:32:48.038Z,96694.52
2023-02-25T09:37:50.438Z,96697.11
2023-02-25T09:43:37.896Z,96712.81
2023-02-25T09:49:03.571Z,96730.05
2023-02-25T09:54:42.488Z,96737.30
2023-02-25T09:59:46.732Z,96736.44
2023-02-25T10:05:33.409Z,96730.23
2023-02-25T10:10:57.568Z,96731.69
2023-02-25T10:16:26.431Z,96735.52
2023-02-25T10:21:54.116Z,96736.09
2023-02-25T10:27:03.710Z,96741.30
2023-02-25T10:32:22.123Z,96731.21
2023-02-25T10:37:35.298Z,96739.95
2023-02-25T10:42:38.742Z,96744.19
2023-02-25T10:47:46.245Z,96750.13
2023-02-25T10:53:16.387Z,96748.59
2023-02-25T10:58:46.896Z,96748.14
2023-02-25T11:03:48.906Z,96743.23
2023-02-25T11:08:54.855Z,96742.15
2023-02-25T11:14:10.083Z,96760.98
2023-02-25T11:19:27.836Z,96753.25
2023-02-25T11:24:34.248Z,96750.84
2023-02-25T11:29:43.716Z,96753.51
2023-02-25T11:35:08.173Z,96751.64
2023-02-25T11:40:23.983Z,96754.58
2023-02-25T11:45:29.977Z,96763.27
2023-02-25T11:50:45.507Z,96776.41
2023-02-25T11:55:56.794Z,96770.20
2023-02-25T12:01:16.944Z,96766.53
2023-02-25T12:06:47.675Z,96766.08
2023-02-25T12:12:29.205Z,96773.35
2023-02-25T12:18:38.432Z,96770.86
2023-02-25T12:23:56.047Z,96773.38
2023-02-25T12:29:53.408Z,96773.42
2023-02-25T12:35:35.587Z,96783.73
2023-02-25T12:41:22.980Z,96790.45
2023-02-25T12:46:47.962Z,96835.77
2023-02-25T12:52:42.242Z,96854.96
2023-02-25T12:58:10.941Z,96844.98
2023-02-25T13:04:17.882Z,96847.54
2023-02-25T13:10:25.895Z,96852.08
2023-02-25T13:15:40.795Z,96847.33
2023-02-25T13:21:08.355Z,96849.21
2023-02-25T13:26:28.147Z,96859.65
2023-02-25T13:31:52.050Z,96882.43
2023-02-25T13:37:13.012Z,96871.31
2023-02-25T13:42:27.522Z,96880.77
2023-02-25T13:48:11.474Z,96886.52
2023-02-25T13:53:48.966Z,96889.22
2023-02-25T13:59:21.361Z,96889.33
2023-02-25T14:05:14.593Z,96897.86
2023-02-25T14:10:50.032Z,96913.79
2023-02-25T14:16:07.707Z,96917.42
2023-02-25T14:21:53.318Z,96922.85
2023-02-25T14:27:26.860Z,96930.03
2023-02-25T14:32:52.728Z,96935.98
2023-02-25T14:37:56.047Z,96934.17
2023-02-25T14:43:21.743Z,96942.80
2023-02-25T14:48:42.106Z,96957.40
2023-02-25T14:54:19.781Z,96967.64
2023-02-25T14:59:55.365Z,96969.82
2023-02-25T15:05:42.375Z,96978.68
2023-02-25T15:10:50.441Z,96983.81
2023-02-25T15:16:20.149Z,96983.69
2023-02-25T15:21:41.686Z,96996.54
2023-02-25T15:26:48.604Z,97015.67
2023-02-25T15:32:22.018Z,97009.23
2023-02-25T15:37:33.892Z,97014.08
2023-02-25T15:42:46.332Z,97018.27
2023-02-25T15:47:50.922Z,97020.80
2023-02-25T15:52:57.794Z,97029.27
2023-02-25T15:58:01.031Z,97034.86
2023-02-25T16:03:35.363Z,97046.42
2023-02-25T16:08:47.056Z,97054.98
2023-02-25T16:13:50.559Z,97056.82
2023-02-25T16:18:55.749Z,97064.21
2023-02-25T16:24:00.187Z,97071.47
2023-02-25T16:29:23.652Z,97082.02
2023-02-25T16:35:09.174Z,97088.02
2023-02-25T16:40:46.028Z,97090.05
2023-02-25T16:46:00.273Z,97101.39
2023-02-25T16:51:20.241Z,97117.41
2023-02-25T16:56:25.547Z,97125.55
2023-02-25T17:01:30.629Z,97143.89
2023-02-25T17:06:33.278Z,97151.27
2023-02-25T17:11:35.433Z,97159.14
2023-02-25T17:16:43.653Z,97166.63
2023-02-25T17:21:53.950Z,97166.38
2023-02-25T17:26:57.351Z,97176.22
2023-02-25T17:31:59.880Z,97187.70
2023-02-25T17:37:06.221Z,97193.91
2023-02-25T17:42:39.738Z,97205.68
2023-02-25T17:47:43.873Z,97207.64
2023-02-25T17:52:51.614Z,97210.73
2023-02-25T17:57:58.833Z,97210.38
2023-02-25T18:03:30.793Z,97226.44
2023-02-25T18:08:53.631Z,97235.29
2023-02-25T18:13:55.877Z,97241.46
2023-02-25T18:19:00.012Z,97249.13
2023-02-25T18:24:10.025Z,97255.92
2023-02-25T18:29:12.813Z,97258.59
2023-02-25T18:34:25.758Z,97267.61
2023-02-25T18:39:29.238Z,97273.85
2023-02-25T18:44:31.903Z,97279.25
2023-02-25T18:49:34.487Z,97285.30
2023-02-25T18:54:38.623Z,97295.81
2023-02-25T18:59:41.920Z,97300.08
2023-02-25T19:04:46.388Z,97304.89
2023-02-25T19:09:54.512Z,97319.27
2023-02-25T19:15:12.766Z,97327.04
2023-02-25T19:20:21.312Z,97332.28
2023-02-25T19:25:29.683Z,97341.88
2023-02-25T19:30:37.583Z,97349.79
2023-02-25T19:35:43.839Z,97354.30
2023-02-25T19:40:48.888Z,97360.36
2023-02-25T19:45:54.553Z,97362.21
2023-02-25T19:50:56.908Z,97363.78
2023-02-25T19:56:00.377Z,97373.70
2023-02-25T20:01:09.201Z,97372.02
2023-02-25T20:06:16.290Z,97374.89
2023-02-25T20:11:21.130Z,97379.02
2023-02-25T20:16:43.790Z,97382.51
2023-02-25T20:21:47.170Z,97391.23
2023-02-25T20:26:51.365Z,97392.39
2023-02-25T20:31:55.738Z,97397.12
2023-02-25T20:37:19.439Z,97405.05
2023-02-25T20:42:29.468Z,97415.30
2023-02-25T20:47:37.667Z,97424.35
2023-02-25T20:52:42.310Z,97428.39
2023-02-25T20:57:44.723Z,97435.61
2023-02-25T21:02:48.040Z,97437.09
2023-02-25T21:07:51.048Z,97435.02
2023-02-25T21:12:59.377Z,97439.11
2023-02-25T21:18:04.646Z,97443.39
2023-02-25T21:23:07.233Z,97446.39
2023-02-25T21:28:10.167Z,97456.23
2023-02-25T21:33:16.775Z,97457.23
2023-02-25T21:38:19.793Z,97460.34
2023-02-25T21:43:24.288Z,97464.77
2023-02-25T21:48:28.453Z,97460.77
2023-02-25T21:53:34.027Z,97469.33
2023-02-25T21:58:36.838Z,97474.58
2023-02-25T22:03:40.227Z,97477.86
2023-02-25T22:08:45.641Z,97477.74
2023-02-25T22:13:55.203Z,97481.10
2023-02-25T22:18:58.852Z,97491.52
2023-02-25T22:24:02.784Z,97502.77
2023-02-25T22:29:08.801Z,97502.63
2023-02-25T22:34:17.517Z,97506.83
2023-02-25T22:39:28.172Z,97519.77
2023-02-25T22:44:30.902Z,97530.20
2023-02-25T22:49:33.676Z,97539.02
2023-02-25T22:54:37.134Z,97549.31
2023-02-25T22:59:39.484Z,97547.16
2023-02-25T23:04:41.605Z,97560.73
2023-02-25T23:09:47.464Z,97573.08
2023-02-25T23:14:50.349Z,97584.14
2023-02-25T23:19:59.252Z,97590.04
2023-02-25T23:25:03.469Z,97592.41
2023-02-25T23:30:06.619Z,97594.65
2023-02-25T23:35:11.600Z,97600.66
2023-02-25T23:40:15.257Z,97613.98
2023-02-25T23:45:17.439Z,97617.99
2023-02-25T23:50:19.363Z,97623.41
2023-02-25T23:55:22.344Z,97637.83
